Time;durP1;ratioP1;P1;durP2;ratioP2;P2;SDS_P1;SDS_P2;PMS_P1;PMS_P2;Temp;Humidity;BMP_temperature;BMP_pressure;BME280_temperature;BME280_humidity;BME280_pressure;Samples;Min_cycle;Max_cycle;Signal;HPM_P1;HPM_P2
2022/05/18 00:01:31;;;;;;;60.08;5.17;;;;;;;15.69;31.13;99679.79;2286524;78;20961;-82
2022/05/18 00:04:31;;;;;;;14.53;2.58;;;;;;;14.06;32.63;99679.70;2286812;78;20903;-82
2022/05/18 00:07:31;;;;;;;5.30;2.42;;;;;;;12.63;34.31;99686.34;2286668;78;21357;-82
2022/05/18 00:10:32;;;;;;;6.50;2.65;;;;;;;11.47;36.04;99692.31;2286971;78;20962;-82
2022/05/18 00:13:32;;;;;;;22.10;3.42;;;;;;;10.59;37.74;99700.22;2286391;78;20947;-81
2022/05/18 00:16:33;;;;;;;18.57;3.13;;;;;;;9.92;39.16;99706.19;2286566;78;21330;-81
2022/05/18 00:19:33;;;;;;;7.27;2.50;;;;;;;9.38;40.57;99706.33;2286491;78;20914;-81
2022/05/18 00:22:34;;;;;;;5.90;2.30;;;;;;;8.78;41.68;99709.20;2286587;78;20910;-80
2022/05/18 00:25:34;;;;;;;13.33;3.20;;;;;;;8.22;42.96;99718.52;2286707;78;21338;-83
2022/05/18 00:28:34;;;;;;;6.20;3.10;;;;;;;8.51;53.79;99722.15;2287325;78;20950;-83
2022/05/18 00:31:35;;;;;;;18.47;3.57;;;;;;;12.29;50.13;99711.47;2287217;78;21197;-83
2022/05/18 00:34:35;;;;;;;12.80;3.47;;;;;;;14.80;44.93;99716.83;2287432;78;20941;-82
2022/05/18 00:37:35;;;;;;;12.00;3.27;;;;;;;16.29;41.42;99715.11;2287522;78;20946;-83
2022/05/18 00:40:36;;;;;;;16.10;3.72;;;;;;;17.36;38.97;99716.58;2287621;78;21005;-82
2022/05/18 00:43:36;;;;;;;7.95;2.92;;;;;;;18.01;36.90;99720.81;2287007;78;21062;-82
2022/05/18 00:46:37;;;;;;;9.30;3.35;;;;;;;16.96;32.75;99723.61;2287107;78;20952;-81
2022/05/18 00:49:37;;;;;;;8.18;2.60;;;;;;;14.40;33.61;99738.72;2284120;78;20986;-82
2022/05/18 00:52:37;;;;;;;8.95;3.25;;;;;;;12.31;35.57;99748.61;2280355;78;20923;-82
2022/05/18 00:55:38;;;;;;;139.10;11.20;;;;;;;10.83;37.57;99756.98;2280610;78;20965;-82
2022/05/18 00:58:38;;;;;;;13.00;2.80;;;;;;;9.82;39.57;99758.92;2281030;78;20891;-82
2022/05/18 01:01:39;;;;;;;9.70;2.90;;;;;;;8.98;41.19;99767.13;2279952;78;20883;-80
2022/05/18 01:04:39;;;;;;;10.80;2.73;;;;;;;8.28;42.64;99773.34;2279953;78;20990;-81
2022/05/18 01:07:39;;;;;;;4.13;2.30;;;;;;;7.77;43.59;99785.30;2279711;78;21305;-80
2022/05/18 01:10:40;;;;;;;5.93;2.97;;;;;;;7.41;44.75;99787.36;2279672;78;21014;-80
2022/05/18 01:13:40;;;;;;;4.57;2.70;;;;;;;7.15;45.62;99797.60;2279313;78;20919;-81
2022/05/18 01:16:41;;;;;;;5.13;2.53;;;;;;;6.86;46.46;99801.56;2279543;78;20947;-80
2022/05/18 01:19:44;;;;;;;2.67;2.23;;;;;;;6.53;47.35;99802.73;2279633;78;20919;-80
2022/05/18 01:22:41;;;;;;;8.80;2.57;;;;;;;6.19;48.17;99806.87;2279408;78;21314;-80
2022/05/18 01:25:42;;;;;;;4.33;2.40;;;;;;;5.90;48.92;99809.00;2279738;78;21045;-80
2022/05/18 01:28:42;;;;;;;8.87;2.40;;;;;;;5.68;49.84;99812.69;2279742;78;20973;-79
2022/05/18 01:31:43;;;;;;;4.40;2.40;;;;;;;5.50;50.51;99819.59;2280254;78;20958;-81
2022/05/18 01:34:43;;;;;;;5.00;2.80;;;;;;;5.35;51.01;99813.28;2280161;78;20919;-81
2022/05/18 01:37:43;;;;;;;3.77;2.70;;;;;;;5.11;51.65;99822.91;2280626;78;20946;-81
2022/05/18 01:40:44;;;;;;;4.33;2.73;;;;;;;4.89;52.23;99818.78;2279739;78;20977;-81
2022/05/18 01:43:44;;;;;;;8.00;2.90;;;;;;;4.71;52.79;99826.92;2279782;78;20951;-81
2022/05/18 01:46:46;;;;;;;8.13;3.17;;;;;;;4.58;53.20;99830.98;2280106;78;20957;-80
2022/05/18 01:49:45;;;;;;;51.53;6.83;;;;;;;4.46;53.70;99831.25;2284067;78;20961;-83
2022/05/18 01:52:45;;;;;;;188.37;15.00;;;;;;;4.35;54.23;99828.52;2290239;77;21361;-82
2022/05/18 01:55:46;;;;;;;46.67;5.63;;;;;;;7.26;67.30;99815.80;2290147;78;20957;-79
2022/05/18 01:58:46;;;;;;;75.13;7.10;;;;;;;11.24;59.10;99813.30;2290041;77;20909;-83
2022/05/18 02:01:48;;;;;;;10.90;3.37;;;;;;;13.42;49.72;99810.43;2290069;77;20950;-84
2022/05/18 02:04:49;;;;;;;11.30;2.83;;;;;;;14.63;47.11;99805.55;2257686;78;20974;-83
2022/05/18 02:07:52;;;;;;;7.50;2.33;;;;;;;16.10;43.37;99805.05;2290337;78;21040;-82
2022/05/18 02:10:52;;;;;;;78.97;7.63;;;;;;;14.77;36.83;99815.36;2290136;77;21417;-80
2022/05/18 02:13:55;;;;;;;9.67;3.67;;;;;;;11.98;38.03;99820.74;2290079;77;21005;-81
2022/05/18 02:16:55;;;;;;;10.03;4.57;;;;;;;10.08;40.21;99828.80;2290544;77;20922;-82
2022/05/18 02:19:56;;;;;;;8.87;4.20;;;;;;;8.73;43.80;99833.99;2291269;77;21036;-84
2022/05/18 02:22:56;;;;;;;12.77;4.23;;;;;;;11.35;50.69;99821.02;2291699;77;20985;-83
2022/05/18 02:25:58;;;;;;;9.07;3.80;;;;;;;14.19;44.41;99818.56;2289999;77;20977;-82
2022/05/18 02:28:57;;;;;;;14.77;4.37;;;;;;;12.97;38.59;99825.35;2290288;77;20950;-82
2022/05/18 02:31:57;;;;;;;9.37;3.73;;;;;;;11.15;40.05;99839.20;2290160;77;21345;-78
2022/05/18 02:34:57;;;;;;;12.57;3.53;;;;;;;9.76;41.74;99845.67;2289992;78;20953;-81
2022/05/18 02:37:58;;;;;;;35.40;5.37;;;;;;;8.89;43.43;99848.01;2290083;77;20906;-81
2022/05/18 02:40:58;;;;;;;9.83;3.37;;;;;;;8.70;45.65;99858.62;2291035;77;20942;-81
2022/05/18 02:43:59;;;;;;;30.67;5.57;;;;;;;8.12;44.81;99859.45;2291646;77;21329;-82
2022/05/18 02:46:59;;;;;;;10.60;3.27;;;;;;;7.72;46.54;99866.09;2291404;77;20910;-81
2022/05/18 02:49:59;;;;;;;9.97;3.30;;;;;;;7.71;46.96;99862.61;2289825;77;21089;-81
2022/05/18 02:53:00;;;;;;;17.03;3.97;;;;;;;7.44;47.26;99867.59;2290168;76;21009;-79
2022/05/18 02:56:06;;;;;;;10.13;3.60;;;;;;;7.27;48.17;99871.22;2291350;78;20926;-81
2022/05/18 02:59:07;;;;;;;25.87;4.60;;;;;;;7.32;48.47;99871.88;2290235;77;20994;-81
2022/05/18 03:02:07;;;;;;;49.87;6.33;;;;;;;7.46;48.78;99869.84;2290226;77;20913;-82
2022/05/18 03:05:08;;;;;;;83.73;8.23;;;;;;;7.39;48.33;99877.33;2290256;78;21383;-81
2022/05/18 03:08:08;;;;;;;9.50;3.67;;;;;;;7.43;49.11;99876.22;2290341;77;20916;-81
2022/05/18 03:11:09;;;;;;;9.23;3.23;;;;;;;7.43;49.06;99877.52;2290268;77;20962;-81
2022/05/18 03:14:09;;;;;;;41.73;6.33;;;;;;;7.22;48.87;99872.74;2289897;78;20910;-79
2022/05/18 03:17:09;;;;;;;8.90;3.60;;;;;;;7.03;49.07;99881.06;2290061;77;20950;-79
2022/05/18 03:23:33;;;;;;;10.53;4.00;;;;;;;6.92;49.83;99882.28;2289933;78;20887;-80
2022/05/18 03:26:29;;;;;;;7.93;3.53;;;;;;;7.02;49.87;99887.48;2290805;77;21022;-82
2022/05/18 03:29:29;;;;;;;11.00;4.10;;;;;;;8.10;56.26;99887.11;2290958;78;20954;-82
2022/05/18 03:32:30;;;;;;;11.07;4.13;;;;;;;12.08;51.17;99883.33;2291031;78;20898;-83
2022/05/18 03:35:31;;;;;;;11.40;4.05;;;;;;;14.71;45.37;99872.64;2291384;77;20958;-83
2022/05/18 03:38:31;;;;;;;8.93;4.17;;;;;;;15.87;37.06;99878.64;2290541;77;20964;-82
2022/05/18 03:41:34;;;;;;;14.55;4.42;;;;;;;15.50;35.08;99883.11;2288570;78;21040;-83
2022/05/18 03:44:31;;;;;;;11.83;4.55;;;;;;;15.09;34.92;99888.87;2289333;77;21423;-84
2022/05/18 03:47:32;;;;;;;16.12;4.72;;;;;;;14.85;35.05;99889.92;2289299;77;21005;-83
2022/05/18 03:50:32;;;;;;;10.60;4.60;;;;;;;14.83;34.97;99886.39;2289308;76;20994;-83
2022/05/18 03:53:32;;;;;;;16.93;4.90;;;;;;;14.73;34.83;99896.31;2290694;78;20985;-84
2022/05/18 03:56:33;;;;;;;39.53;6.15;;;;;;;14.56;34.87;99907.94;2290476;78;21009;-83
2022/05/18 03:59:33;;;;;;;399.10;31.68;;;;;;;14.62;35.76;99908.02;2288883;77;21280;-79
2022/05/18 04:02:35;;;;;;;189.72;14.70;;;;;;;13.74;34.79;99912.82;2287896;78;21061;-82
2022/05/18 04:05:37;;;;;;;22.13;5.13;;;;;;;11.74;36.68;99928.30;2288909;78;21048;-85
2022/05/18 04:08:35;;;;;;;408.93;27.97;;;;;;;10.25;38.85;99929.78;2289015;77;20978;-80
2022/05/18 04:11:36;;;;;;;1999.90;198.77;;;;;;;9.32;40.69;99941.94;2289272;77;21127;-80
2022/05/18 04:14:36;;;;;;;224.63;16.87;;;;;;;8.69;43.01;99955.76;2289564;77;20930;-81
2022/05/18 04:17:39;;;;;;;34.53;5.30;;;;;;;8.14;44.11;99949.70;2289588;77;21450;-83
2022/05/18 04:20:39;;;;;;;37.73;6.13;;;;;;;7.89;44.59;99959.55;2257174;78;20946;-83
2022/05/18 04:23:39;;;;;;;11.53;3.47;;;;;;;7.79;45.54;99964.28;2288915;77;21364;-82
2022/05/18 04:26:40;;;;;;;6.27;3.17;;;;;;;7.72;46.55;99960.55;2290244;78;20930;-82
2022/05/18 04:29:40;;;;;;;8.83;3.30;;;;;;;7.59;47.12;99964.35;2290005;77;21265;-82
2022/05/18 04:32:58;;;;;;;8.57;4.00;;;;;;;7.50;47.63;99967.87;2290125;78;20969;-83
2022/05/18 04:35:50;;;;;;;6.70;3.60;;;;;;;7.54;47.63;99964.98;2255633;78;21073;-83
2022/05/18 04:38:49;;;;;;;12.77;4.50;;;;;;;7.62;47.75;99963.59;2289213;78;21385;-82
2022/05/18 04:41:49;;;;;;;17.50;4.83;;;;;;;7.67;48.09;99960.36;2289186;77;20990;-80
2022/05/18 04:44:53;;;;;;;27.07;5.43;;;;;;;8.86;54.09;99967.67;2289970;77;21063;-80
2022/05/18 04:47:53;;;;;;;10.63;4.57;;;;;;;12.73;48.12;99951.54;2289380;77;20898;-80
2022/05/18 04:50:54;;;;;;;21.23;5.53;;;;;;;15.38;42.19;99957.55;2287448;78;20965;-82
2022/05/18 04:53:54;;;;;;;10.72;4.83;;;;;;;16.75;39.31;99963.08;2284356;78;21029;-82
2022/05/18 04:56:55;;;;;;;8.98;4.30;;;;;;;16.15;35.29;99967.94;2278793;77;20923;-82
2022/05/18 04:59:55;;;;;;;12.47;4.95;;;;;;;13.76;35.85;99978.45;2253727;77;20997;-84
2022/05/18 05:02:57;;;;;;;10.15;4.00;;;;;;;11.86;38.92;99985.30;2231688;80;20955;-83
2022/05/18 05:05:59;;;;;;;10.10;4.40;;;;;;;10.96;40.67;99991.09;2232653;80;21014;-82
2022/05/18 05:09:03;;;;;;;10.33;4.00;;;;;;;10.72;42.70;99990.86;2198803;81;20988;-83
2022/05/18 05:12:04;;;;;;;18.37;4.40;;;;;;;10.18;42.60;100006.54;2203707;80;21007;-84
2022/05/18 05:15:04;;;;;;;7.47;3.90;;;;;;;10.05;44.10;100005.68;2231012;80;20955;-83
2022/05/18 05:18:04;;;;;;;13.53;3.87;;;;;;;10.81;43.09;100002.87;2230598;80;21402;-83
2022/05/18 05:21:05;;;;;;;44.43;6.13;;;;;;;10.43;43.50;100003.03;2229986;80;20955;-83
2022/05/18 05:24:05;;;;;;;32.47;4.20;;;;;;;10.24;42.56;100006.30;2230235;80;21034;-84
2022/05/18 05:27:05;;;;;;;16.03;4.37;;;;;;;9.68;42.95;100005.30;2230625;80;20960;-83
2022/05/18 05:30:06;;;;;;;23.50;3.90;;;;;;;9.24;44.06;100013.33;2230842;80;21850;-81
2022/05/18 05:33:06;;;;;;;7.73;3.40;;;;;;;8.94;44.72;100015.71;2231393;80;20957;-82
2022/05/18 05:36:07;;;;;;;9.70;3.93;;;;;;;9.67;44.79;100026.58;2231899;80;21018;-81
2022/05/18 05:39:07;;;;;;;7.37;4.10;;;;;;;11.00;43.05;100026.50;2232139;80;20951;-82
2022/05/18 05:42:08;;;;;;;13.73;4.63;;;;;;;10.56;42.40;100029.52;2231843;80;21076;-82
2022/05/18 05:45:11;;;;;;;24.93;5.23;;;;;;;10.35;44.26;100035.81;2230896;80;21391;-86
2022/05/18 05:48:11;;;;;;;12.77;4.40;;;;;;;10.84;42.51;100033.00;2231347;80;20991;-82
2022/05/18 05:51:13;;;;;;;8.80;3.90;;;;;;;10.88;42.90;100030.06;2233081;78;21078;-83
2022/05/18 05:54:12;;;;;;;7.93;4.00;;;;;;;10.95;43.59;100037.66;2236877;80;20896;-83
2022/05/18 05:57:13;;;;;;;13.60;4.80;;;;;;;11.51;42.03;100043.63;2235742;80;20963;-83
2022/05/18 06:00:13;;;;;;;8.23;4.07;;;;;;;11.54;41.72;100046.32;2235151;80;20944;-84
2022/05/18 06:03:13;;;;;;;4.87;3.00;;;;;;;12.25;41.06;100050.84;2235745;80;21614;-83
2022/05/18 06:06:14;;;;;;;4.43;2.80;;;;;;;12.07;41.17;100053.86;2235514;80;21053;-83
2022/05/18 06:09:14;;;;;;;4.60;2.72;;;;;;;11.89;41.31;100049.89;2236010;80;21450;-83
2022/05/18 06:12:17;;;;;;;16.35;2.90;;;;;;;13.25;39.20;100047.45;2234504;80;21536;-82
2022/05/18 06:15:17;;;;;;;4.85;2.45;;;;;;;12.90;38.33;100055.82;2215133;80;21374;-82
2022/05/18 06:18:17;;;;;;;3.27;2.22;;;;;;;13.25;37.82;100057.51;2235360;80;20995;-82
2022/05/18 06:21:18;;;;;;;4.00;2.67;;;;;;;12.70;38.20;100058.00;2235768;80;21059;-82
2022/05/18 06:24:19;;;;;;;5.42;2.50;;;;;;;13.23;38.69;100053.97;2235463;80;21042;-84
2022/05/18 06:27:18;;;;;;;21.33;2.72;;;;;;;13.24;37.37;100057.05;2235350;80;21030;-83
2022/05/18 06:30:19;;;;;;;16.55;2.62;;;;;;;13.12;38.54;100058.50;2236326;80;21339;-83
2022/05/18 06:33:19;;;;;;;18.90;2.85;;;;;;;14.10;37.29;100053.00;2236317;80;21512;-83
2022/05/18 06:36:20;;;;;;;4.80;2.42;;;;;;;14.85;36.35;100063.41;2235364;80;21003;-82
2022/05/18 06:39:20;;;;;;;5.95;1.92;;;;;;;15.35;34.30;100069.33;2234859;80;21722;-80
2022/05/18 06:42:21;;;;;;;63.70;5.30;;;;;;;14.78;35.27;100068.13;2235670;80;21042;-80
2022/05/18 06:45:21;;;;;;;4.60;2.00;;;;;;;15.82;34.36;100068.60;2236884;80;21058;-84
2022/05/18 06:48:21;;;;;;;6.65;2.27;;;;;;;15.91;32.21;100079.22;2236238;80;21462;-82
2022/05/18 06:51:22;;;;;;;5.28;1.92;;;;;;;14.69;33.39;100085.05;2235325;80;20960;-84
2022/05/18 06:54:22;;;;;;;5.37;1.80;;;;;;;13.87;33.96;100087.12;2231901;80;20912;-83
2022/05/18 06:57:22;;;;;;;4.65;1.75;;;;;;;13.62;34.75;100093.64;2231865;80;21332;-84
2022/05/18 07:00:23;;;;;;;5.00;2.12;;;;;;;13.92;33.53;100102.13;2231262;80;21023;-80
2022/05/18 07:03:23;;;;;;;3.85;1.72;;;;;;;13.79;34.84;100102.72;2231036;80;20967;-84
2022/05/18 07:06:24;;;;;;;4.83;1.70;;;;;;;14.29;33.25;100104.97;2232088;80;21394;-83
2022/05/18 07:09:24;;;;;;;7.37;1.92;;;;;;;13.71;33.68;100105.63;2232510;80;20979;-81
2022/05/18 07:12:25;;;;;;;12.98;2.05;;;;;;;13.83;33.97;100099.30;2231290;79;21635;-82
2022/05/18 07:15:25;;;;;;;2.83;1.50;;;;;;;14.13;34.61;100102.05;2231364;80;21006;-82
2022/05/18 07:18:25;;;;;;;5.28;3.65;;;;;;;14.39;31.54;100109.95;2232286;80;20971;-83
2022/05/18 07:21:26;;;;;;;6.90;1.70;;;;;;;14.39;32.47;100103.38;2232311;80;20960;-84
2022/05/18 07:24:26;;;;;;;5.97;1.85;;;;;;;14.73;31.22;100111.83;2231831;80;21006;-84
2022/05/18 07:27:28;;;;;;;4.17;1.90;;;;;;;14.52;31.93;100115.00;2233175;80;21041;-81
2022/05/18 07:30:27;;;;;;;5.70;2.10;;;;;;;14.89;32.47;100106.85;2232919;80;21043;-82
2022/05/18 07:33:28;;;;;;;3.02;1.70;;;;;;;15.63;31.21;100111.39;2231927;80;21030;-82
2022/05/18 07:36:29;;;;;;;3.58;1.82;;;;;;;15.14;30.62;100107.20;2231992;79;22067;-84
2022/05/18 07:39:28;;;;;;;13.62;2.62;;;;;;;14.61;31.49;100113.41;2232385;80;20963;-82
2022/05/18 07:42:29;;;;;;;5.78;1.75;;;;;;;14.80;31.85;100113.72;2232016;80;20991;-84
2022/05/18 07:45:29;;;;;;;5.78;3.15;;;;;;;15.14;30.52;100109.83;2232159;80;21013;-84
2022/05/18 07:48:30;;;;;;;5.58;2.00;;;;;;;14.86;28.91;100115.13;2232092;80;20963;-82
2022/05/18 07:51:30;;;;;;;12.13;10.93;;;;;;;14.42;28.70;100115.28;2232038;79;20971;-82
2022/05/18 07:54:34;;;;;;;9.25;7.95;;;;;;;14.32;27.91;100115.95;2236427;80;20927;-84
2022/05/18 07:57:34;;;;;;;124.20;97.15;;;;;;;14.12;28.73;100123.92;2236396;80;20990;-82
2022/05/18 08:00:34;;;;;;;36.25;26.68;;;;;;;14.11;29.50;100123.03;2235250;80;20975;-83
2022/05/18 08:03:35;;;;;;;5.62;5.03;;;;;;;14.42;29.13;100127.11;2235533;80;20960;-82
2022/05/18 08:06:35;;;;;;;10.08;5.05;;;;;;;14.55;28.44;100129.08;2235632;80;21025;-83
2022/05/18 08:15:05;;;;;;;5.30;4.20;;;;;;;14.53;30.19;100128.16;2235054;80;20960;-82
2022/05/18 08:15:55;;;;;;;1.52;1.12;;;;;;;14.52;29.53;100121.57;2235538;80;21039;-80
2022/05/18 08:18:57;;;;;;;5.17;1.37;;;;;;;15.22;28.03;100122.64;2213099;80;21390;-82
2022/05/18 08:21:58;;;;;;;84.17;6.67;;;;;;;15.40;27.75;100115.42;2234034;80;20963;-79
2022/05/18 08:24:58;;;;;;;19.23;14.28;;;;;;;15.87;28.04;100122.19;2234677;80;20951;-82
2022/05/18 08:27:58;;;;;;;7.28;2.00;;;;;;;15.93;26.94;100122.69;2235268;79;21014;-82
2022/05/18 08:30:59;;;;;;;8.85;1.95;;;;;;;15.85;28.21;100117.34;2235637;80;21375;-82
2022/05/18 08:33:59;;;;;;;41.55;4.35;;;;;;;16.98;27.76;100118.36;2234874;80;20955;-82
2022/05/18 08:37:00;;;;;;;4.03;2.98;;;;;;;17.35;25.84;100115.52;2236115;80;21450;-81
2022/05/18 08:40:00;;;;;;;11.05;3.05;;;;;;;16.69;26.92;100125.19;2236613;80;20994;-82
2022/05/18 08:43:00;;;;;;;5.58;1.50;;;;;;;16.21;26.25;100122.53;2235367;80;20995;-82
2022/05/18 08:46:01;;;;;;;3.72;1.77;;;;;;;16.03;26.47;100115.33;2234943;80;20932;-82
2022/05/18 08:49:01;;;;;;;5.90;1.27;;;;;;;15.76;26.74;100127.77;2234897;80;20955;-82
2022/05/18 08:52:02;;;;;;;81.75;5.72;;;;;;;15.75;26.41;100118.10;2234157;80;21325;-80
2022/05/18 08:55:02;;;;;;;3.45;1.35;;;;;;;16.04;27.75;100118.84;2231373;79;21375;-80
2022/05/18 08:58:02;;;;;;;4.65;1.35;;;;;;;16.85;26.03;100121.80;2231902;79;21011;-80
2022/05/18 09:01:06;;;;;;;7.58;2.90;;;;;;;16.95;26.90;100114.39;2231493;80;20975;-80
2022/05/18 09:04:06;;;;;;;6.97;2.12;;;;;;;17.50;26.25;100105.46;2230477;80;21022;-82
2022/05/18 09:07:07;;;;;;;2.05;1.40;;;;;;;17.69;26.03;100106.44;2231046;80;21015;-81
2022/05/18 09:10:13;;;;;;;1.75;1.20;;;;;;;18.31;25.15;100102.63;2230214;79;21023;-82
2022/05/18 09:13:13;;;;;;;5.37;1.75;;;;;;;18.18;24.94;100104.78;2229175;80;21027;-80
2022/05/18 09:16:14;;;;;;;2.47;1.52;;;;;;;18.13;25.35;100102.57;2230776;80;21907;-83
2022/05/18 09:19:14;;;;;;;5.20;1.90;;;;;;;17.96;25.89;100100.34;2230837;79;20995;-82
2022/05/18 09:22:14;;;;;;;3.20;1.10;;;;;;;17.69;25.52;100099.40;2232137;80;20952;-80
2022/05/18 09:25:15;;;;;;;9.43;1.98;;;;;;;17.58;25.61;100099.77;2231238;80;21015;-80
2022/05/18 09:28:17;;;;;;;3.95;1.37;;;;;;;18.21;25.67;100107.46;2231528;80;20975;-83
2022/05/18 09:31:18;;;;;;;2.55;1.47;;;;;;;17.66;24.88;100100.71;2210266;80;21378;-83
2022/05/18 09:34:19;;;;;;;8.48;1.35;;;;;;;17.53;24.74;100101.95;2232246;80;21058;-83
2022/05/18 09:37:18;;;;;;;3.67;1.30;;;;;;;17.05;24.58;100104.77;2231874;80;20948;-82
2022/05/18 09:40:19;;;;;;;2.65;1.30;;;;;;;16.89;25.56;100110.39;2232282;79;20961;-82
2022/05/18 09:43:21;;;;;;;3.67;1.17;;;;;;;16.81;25.37;100110.78;2232808;80;21090;-80
2022/05/18 09:46:22;;;;;;;4.05;1.57;;;;;;;16.81;25.62;100110.78;2231689;80;21017;-82
2022/05/18 09:49:23;;;;;;;2.58;1.10;;;;;;;17.21;25.37;100101.34;2231118;80;20940;-82
2022/05/18 09:52:24;;;;;;;4.00;1.35;;;;;;;17.79;25.73;100097.22;2231227;78;21011;-82
2022/05/18 09:55:24;;;;;;;3.95;1.45;;;;;;;18.74;23.43;100094.27;2225807;80;20975;-82
2022/05/18 09:58:24;;;;;;;2.10;1.42;;;;;;;17.89;23.92;100092.84;2225456;80;21029;-82
2022/05/18 10:08:02;;;;;;;8.80;1.35;;;;;;;17.37;24.89;100086.49;2224026;80;20991;-83
2022/05/18 10:11:05;;;;;;;4.55;1.30;;;;;;;17.75;24.68;100084.89;2201769;80;21462;-82
2022/05/18 10:14:05;;;;;;;21.23;1.60;;;;;;;18.35;23.60;100085.00;2224695;80;21069;-81
2022/05/18 10:17:06;;;;;;;1.30;1.05;;;;;;;18.39;23.51;100083.68;2224924;80;21012;-81
2022/05/18 10:20:06;;;;;;;2.37;1.57;;;;;;;18.23;23.32;100077.95;2224541;80;21395;-82
2022/05/18 10:23:06;;;;;;;6.22;1.07;;;;;;;18.09;23.36;100083.63;2224160;80;20936;-83
2022/05/18 10:26:07;;;;;;;4.28;1.30;;;;;;;18.12;23.25;100073.06;2224101;80;21086;-82
2022/05/18 10:29:07;;;;;;;1.62;1.00;;;;;;;18.67;22.99;100064.73;2224326;80;20999;-82
2022/05/18 10:32:09;;;;;;;20.23;2.30;;;;;;;18.53;21.91;100074.86;2224248;80;20983;-81
2022/05/18 10:35:08;;;;;;;5.85;0.82;;;;;;;18.45;21.76;100074.42;2224512;80;21031;-80
2022/05/18 10:38:08;;;;;;;1.92;1.15;;;;;;;18.14;21.42;100068.22;2225857;80;20959;-81
2022/05/18 10:41:09;;;;;;;0.90;0.90;;;;;;;17.92;21.70;100065.55;2225503;80;20960;-80
2022/05/18 10:44:09;;;;;;;1.72;1.55;;;;;;;18.46;22.60;100056.80;2224819;79;21051;-82
2022/05/18 10:47:10;;;;;;;2.80;0.90;;;;;;;19.34;22.03;100053.98;2225248;80;20999;-82
2022/05/18 10:50:10;;;;;;;2.08;0.98;;;;;;;19.01;20.80;100056.28;2225382;80;21315;-84
2022/05/18 10:53:10;;;;;;;2.52;1.20;;;;;;;19.40;21.21;100054.40;2227006;80;20991;-82
2022/05/18 10:56:11;;;;;;;1.32;1.22;;;;;;;19.81;21.24;100046.70;2230064;80;21278;-78
2022/05/18 10:59:11;;;;;;;1.10;1.00;;;;;;;20.03;20.11;100049.66;2229116;80;21323;-78
2022/05/18 11:02:12;;;;;;;1.25;0.80;;;;;;;19.72;20.09;100043.66;2229155;80;20973;-80
2022/05/18 11:05:12;;;;;;;4.75;1.30;;;;;;;19.08;19.92;100052.77;2231560;80;20963;-82
2022/05/18 11:08:14;;;;;;;6.45;1.20;;;;;;;18.93;20.99;100054.09;2232507;80;20959;-83
2022/05/18 11:11:13;;;;;;;6.70;1.10;;;;;;;18.68;20.48;100050.63;2231246;80;20912;-82
2022/05/18 11:14:13;;;;;;;3.17;0.90;;;;;;;19.00;21.07;100051.88;2231943;80;21115;-80
2022/05/18 11:17:14;;;;;;;2.08;0.90;;;;;;;19.44;21.51;100042.91;2230380;80;21066;-82
2022/05/18 11:20:14;;;;;;;4.17;1.20;;;;;;;19.69;21.63;100041.91;2229170;79;21379;-80
2022/05/18 11:23:14;;;;;;;1.42;0.85;;;;;;;19.97;21.10;100041.76;2230181;80;20975;-81
2022/05/18 11:26:15;;;;;;;5.67;1.52;;;;;;;19.91;20.84;100039.12;2230111;80;20975;-80
2022/05/18 11:29:15;;;;;;;2.50;0.90;;;;;;;19.41;21.78;100039.83;2230436;80;21008;-82
2022/05/18 11:32:16;;;;;;;1.67;1.10;;;;;;;19.14;22.39;100039.95;2230666;80;20971;-81
2022/05/18 11:35:16;;;;;;;1.50;1.15;;;;;;;19.02;22.16;100040.84;2230979;80;20998;-82
2022/05/18 11:38:16;;;;;;;4.05;1.00;;;;;;;19.06;22.97;100038.62;2231467;80;21062;-82
2022/05/18 11:41:19;;;;;;;1.55;0.98;;;;;;;19.78;22.24;100036.12;2230738;80;20978;-81
2022/05/18 11:44:19;;;;;;;1.75;1.10;;;;;;;19.39;21.60;100042.05;2209497;80;21019;-84
2022/05/18 11:47:20;;;;;;;1.98;1.05;;;;;;;19.63;21.55;100039.74;2230647;79;21003;-83
2022/05/18 11:50:20;;;;;;;1.27;1.17;;;;;;;19.85;22.05;100033.42;2231263;80;20975;-83
2022/05/18 11:53:21;;;;;;;3.58;0.95;;;;;;;20.27;21.54;100032.69;2235633;79;21031;-82
2022/05/18 11:56:21;;;;;;;2.80;1.02;;;;;;;20.17;21.95;100030.55;2245973;79;20959;-82
2022/05/18 11:59:44;;;;;;;50.38;4.15;;;;;;;20.32;21.25;100026.89;2244969;79;20896;-82
2022/05/18 12:02:32;;;;;;;6.53;1.30;;;;;;;20.15;21.22;100032.34;2245388;79;20923;-81
2022/05/18 12:05:32;;;;;;;4.20;1.10;;;;;;;19.60;21.88;100032.70;2243818;79;21361;-82
2022/05/18 12:08:32;;;;;;;2.10;1.05;;;;;;;19.54;21.36;100032.73;2243941;79;20959;-80
2022/05/18 12:11:32;;;;;;;3.75;1.10;;;;;;;19.41;21.54;100041.59;2244544;79;21373;-79
2022/05/18 12:14:33;;;;;;;9.15;1.65;;;;;;;19.23;21.49;100039.03;2243226;79;21014;-80
2022/05/18 12:17:33;;;;;;;5.55;1.32;;;;;;;19.30;22.08;100036.80;2242606;79;20927;-80
2022/05/18 12:20:34;;;;;;;10.82;1.70;;;;;;;19.57;22.35;100041.10;2244461;79;20940;-82
2022/05/18 12:23:34;;;;;;;5.87;1.30;;;;;;;19.32;22.78;100040.31;2243906;79;20970;-79
2022/05/18 12:26:34;;;;;;;2.08;0.85;;;;;;;19.12;22.45;100037.75;2243388;79;20999;-80
2022/05/18 12:29:35;;;;;;;3.50;1.40;;;;;;;19.33;22.52;100028.39;2244217;79;21228;-80
2022/05/18 12:32:35;;;;;;;3.05;1.17;;;;;;;19.50;22.51;100031.40;2244038;79;21453;-80
2022/05/18 12:35:36;;;;;;;3.62;1.30;;;;;;;19.51;21.63;100031.83;2243520;79;20943;-80
2022/05/18 12:38:36;;;;;;;3.20;1.30;;;;;;;19.76;22.06;100029.51;2244379;79;21315;-81
2022/05/18 12:41:36;;;;;;;5.05;1.30;;;;;;;20.01;21.83;100028.92;2245485;79;20971;-80
2022/05/18 12:44:40;;;;;;;3.02;1.00;;;;;;;19.86;22.00;100023.25;2245175;79;21908;-80
2022/05/18 12:47:40;;;;;;;4.35;2.90;;;;;;;19.95;21.81;100017.92;2245265;79;21356;-80
2022/05/18 12:50:41;;;;;;;5.45;1.20;;;;;;;19.90;22.33;100014.84;2244755;79;21188;-81
2022/05/18 12:53:41;;;;;;;6.28;1.40;;;;;;;20.12;21.42;100028.39;2239607;79;21029;-79
2022/05/18 12:56:42;;;;;;;5.80;1.42;;;;;;;19.77;21.69;100018.02;2230380;80;20979;-79
2022/05/18 12:59:42;;;;;;;9.75;1.90;;;;;;;19.78;22.01;100020.22;2230909;80;21001;-80
2022/05/18 13:02:42;;;;;;;6.42;1.37;;;;;;;19.82;22.17;100019.31;2231647;80;21342;-80
2022/05/18 13:05:43;;;;;;;3.27;0.80;;;;;;;20.06;21.92;100018.28;2230770;80;21006;-80
2022/05/18 13:08:43;;;;;;;2.42;1.00;;;;;;;20.14;20.08;100024.41;2231157;80;20971;-81
2022/05/18 13:11:43;;;;;;;11.38;4.08;;;;;;;19.88;20.07;100017.95;2231850;80;20940;-79
2022/05/18 13:14:44;;;;;;;3.83;1.30;;;;;;;20.13;20.97;100009.39;2231598;80;21051;-79
2022/05/18 13:17:44;;;;;;;7.65;1.10;;;;;;;20.09;20.14;100017.81;2232645;80;20993;-81
2022/05/18 13:20:45;;;;;;;21.95;1.55;;;;;;;19.75;20.92;100014.50;2232284;80;20971;-81
2022/05/18 13:23:45;;;;;;;5.08;1.00;;;;;;;19.65;21.24;100007.06;2231848;80;20996;-80
2022/05/18 13:26:45;;;;;;;6.30;1.20;;;;;;;19.51;21.27;100006.23;2232020;80;21489;-83
2022/05/18 13:29:46;;;;;;;4.25;1.10;;;;;;;19.55;21.41;100000.06;2232190;80;20901;-82
2022/05/18 13:32:46;;;;;;;4.40;0.90;;;;;;;19.94;21.58;99994.96;2232715;80;20940;-80
2022/05/18 13:35:46;;;;;;;5.90;1.20;;;;;;;20.28;20.48;99997.32;2231631;80;21011;-82
2022/05/18 13:38:47;;;;;;;1.57;1.05;;;;;;;19.96;20.86;100002.90;2231073;80;21233;-81
2022/05/18 13:41:48;;;;;;;3.22;1.32;;;;;;;20.17;20.89;99996.09;2230918;80;20975;-81
2022/05/18 13:44:48;;;;;;;2.95;0.98;;;;;;;20.10;21.07;100002.34;2230374;80;21362;-81
2022/05/18 13:47:53;;;;;;;5.12;1.30;;;;;;;20.05;20.86;99990.90;2229951;80;20924;-81
2022/05/18 13:50:50;;;;;;;1.55;1.12;;;;;;;20.56;20.58;99985.58;2207004;80;20994;-79
2022/05/18 13:53:51;;;;;;;7.03;1.00;;;;;;;20.81;20.51;99979.59;2228405;79;21016;-80
2022/05/18 13:56:51;;;;;;;1.77;1.05;;;;;;;20.92;20.20;99975.48;2224321;80;20971;-80
2022/05/18 13:59:52;;;;;;;3.05;1.15;;;;;;;20.86;19.98;99972.45;2224145;80;21006;-81
2022/05/18 14:02:52;;;;;;;2.42;1.10;;;;;;;20.73;20.29;99969.92;2225317;80;21026;-81
2022/05/18 14:05:54;;;;;;;28.73;2.90;;;;;;;20.50;19.92;99973.71;2225527;80;20975;-82
2022/05/18 14:08:57;;;;;;;4.95;1.10;;;;;;;20.35;20.25;99970.73;2225391;80;21370;-81
2022/05/18 14:12:11;;;;;;;4.50;0.88;;;;;;;20.44;20.48;99971.13;2226138;80;20983;-81
2022/05/18 14:15:00;;;;;;;1.07;0.80;;;;;;;20.33;19.85;99967.67;2174029;80;21007;-80